sensor_id;sensor_type;location;lat;lon;timestamp;temperature;humidity
2869;DHT22;1442;47.448;8.582;2024-01-30T00:00:43;0.70;99.90
2869;DHT22;1442;47.448;8.582;2024-01-30T00:03:10;0.70;99.90
2869;DHT22;1442;47.448;8.582;2024-01-30T00:05:38;0.70;99.90
2869;DHT22;1442;47.448;8.582;2024-01-30T00:08:06;0.70;99.90
2869;DHT22;1442;47.448;8.582;2024-01-30T00:10:33;0.80;99.90
2869;DHT22;1442;47.448;8.582;2024-01-30T00:13:00;0.80;99.90
2869;DHT22;1442;47.448;8.582;2024-01-30T00:15:26;0.70;99.90
2869;DHT22;1442;47.448;8.582;2024-01-30T00:17:53;0.70;99.90
2869;DHT22;1442;47.448;8.582;2024-01-30T00:20:20;0.70;99.90
2869;DHT22;1442;47.448;8.582;2024-01-30T00:22:49;0.70;99.90
2869;DHT22;1442;47.448;8.582;2024-01-30T00:25:16;0.70;99.90
2869;DHT22;1442;47.448;8.582;2024-01-30T00:27:43;0.70;99.90
2869;DHT22;1442;47.448;8.582;2024-01-30T00:30:11;0.70;99.90
2869;DHT22;1442;47.448;8.582;2024-01-30T00:32:38;0.70;99.90
2869;DHT22;1442;47.448;8.582;2024-01-30T00:35:05;0.80;99.90
2869;DHT22;1442;47.448;8.582;2024-01-30T00:37:32;0.80;99.90
2869;DHT22;1442;47.448;8.582;2024-01-30T00:40:00;0.90;99.90
2869;DHT22;1442;47.448;8.582;2024-01-30T00:42:27;0.90;99.90
2869;DHT22;1442;47.448;8.582;2024-01-30T00:44:54;0.80;99.90
2869;DHT22;1442;47.448;8.582;2024-01-30T00:47:21;0.80;99.90
2869;DHT22;1442;47.448;8.582;2024-01-30T00:49:48;0.70;99.90
2869;DHT22;1442;47.448;8.582;2024-01-30T00:52:15;0.60;99.90
2869;DHT22;1442;47.448;8.582;2024-01-30T00:54:42;0.50;99.90
2869;DHT22;1442;47.448;8.582;2024-01-30T00:57:10;0.50;99.90
2869;DHT22;1442;47.448;8.582;2024-01-30T00:59:37;0.50;99.90
2869;DHT22;1442;47.448;8.582;2024-01-30T01:02:04;0.50;99.90
2869;DHT22;1442;47.448;8.582;2024-01-30T01:04:31;0.50;99.90
2869;DHT22;1442;47.448;8.582;2024-01-30T01:06:57;0.50;99.90
2869;DHT22;1442;47.448;8.582;2024-01-30T01:09:24;0.50;99.90
2869;DHT22;1442;47.448;8.582;2024-01-30T01:11:52;0.50;99.90
2869;DHT22;1442;47.448;8.582;2024-01-30T01:14:20;0.50;99.90
2869;DHT22;1442;47.448;8.582;2024-01-30T01:16:47;0.40;99.90
2869;DHT22;1442;47.448;8.582;2024-01-30T01:19:14;0.40;99.90
2869;DHT22;1442;47.448;8.582;2024-01-30T01:21:41;0.40;99.90
2869;DHT22;1442;47.448;8.582;2024-01-30T01:24:07;0.40;99.90
2869;DHT22;1442;47.448;8.582;2024-01-30T01:26:34;0.40;99.90
2869;DHT22;1442;47.448;8.582;2024-01-30T01:29:01;0.40;99.90
2869;DHT22;1442;47.448;8.582;2024-01-30T01:31:31;0.40;99.90
2869;DHT22;1442;47.448;8.582;2024-01-30T01:33:58;0.40;99.90
2869;DHT22;1442;47.448;8.582;2024-01-30T01:36:24;0.40;99.90
2869;DHT22;1442;47.448;8.582;2024-01-30T01:38:51;0.40;99.90
2869;DHT22;1442;47.448;8.582;2024-01-30T01:41:18;0.50;99.90
2869;DHT22;1442;47.448;8.582;2024-01-30T01:43:45;0.50;99.90
2869;DHT22;1442;47.448;8.582;2024-01-30T01:46:12;0.50;99.90
2869;DHT22;1442;47.448;8.582;2024-01-30T01:48:41;0.50;99.90
2869;DHT22;1442;47.448;8.582;2024-01-30T01:51:10;0.50;99.90
2869;DHT22;1442;47.448;8.582;2024-01-30T01:53:37;0.50;99.90
2869;DHT22;1442;47.448;8.582;2024-01-30T01:56:05;0.40;99.90
2869;DHT22;1442;47.448;8.582;2024-01-30T01:58:32;0.40;99.90
2869;DHT22;1442;47.448;8.582;2024-01-30T02:00:59;0.40;99.90
2869;DHT22;1442;47.448;8.582;2024-01-30T02:03:26;0.50;99.90
2869;DHT22;1442;47.448;8.582;2024-01-30T02:05:55;0.50;99.90
2869;DHT22;1442;47.448;8.582;2024-01-30T02:08:23;0.50;99.90
2869;DHT22;1442;47.448;8.582;2024-01-30T02:10:50;0.50;99.90
2869;DHT22;1442;47.448;8.582;2024-01-30T02:13:17;0.40;99.90
2869;DHT22;1442;47.448;8.582;2024-01-30T02:15:44;0.40;99.90
2869;DHT22;1442;47.448;8.582;2024-01-30T02:18:15;0.40;99.90
2869;DHT22;1442;47.448;8.582;2024-01-30T02:20:42;0.30;99.90
2869;DHT22;1442;47.448;8.582;2024-01-30T02:23:12;0.20;99.90
2869;DHT22;1442;47.448;8.582;2024-01-30T02:25:41;0.20;99.90
2869;DHT22;1442;47.448;8.582;2024-01-30T02:28:10;0.20;99.90
2869;DHT22;1442;47.448;8.582;2024-01-30T02:30:37;0.10;99.90
2869;DHT22;1442;47.448;8.582;2024-01-30T02:33:04;0.10;99.90
2869;DHT22;1442;47.448;8.582;2024-01-30T02:35:31;0.00;99.90
2869;DHT22;1442;47.448;8.582;2024-01-30T02:37:59;0.00;99.90
2869;DHT22;1442;47.448;8.582;2024-01-30T02:40:27;-0.10;99.90
2869;DHT22;1442;47.448;8.582;2024-01-30T02:42:54;-0.10;99.90
2869;DHT22;1442;47.448;8.582;2024-01-30T02:45:21;-0.20;99.90
2869;DHT22;1442;47.448;8.582;2024-01-30T02:47:47;-0.30;99.90
2869;DHT22;1442;47.448;8.582;2024-01-30T02:50:14;-0.30;99.90
2869;DHT22;1442;47.448;8.582;2024-01-30T02:52:41;-0.40;99.90
2869;DHT22;1442;47.448;8.582;2024-01-30T02:55:09;-0.40;99.90
2869;DHT22;1442;47.448;8.582;2024-01-30T02:57:37;-0.40;99.90
2869;DHT22;1442;47.448;8.582;2024-01-30T03:00:05;-0.40;99.90
2869;DHT22;1442;47.448;8.582;2024-01-30T03:02:35;-0.40;99.90
2869;DHT22;1442;47.448;8.582;2024-01-30T03:05:02;-0.40;99.90
2869;DHT22;1442;47.448;8.582;2024-01-30T03:07:29;-0.40;99.90
2869;DHT22;1442;47.448;8.582;2024-01-30T03:09:56;-0.40;99.90
2869;DHT22;1442;47.448;8.582;2024-01-30T03:12:23;-0.50;99.90
2869;DHT22;1442;47.448;8.582;2024-01-30T03:14:51;-0.50;99.90
2869;DHT22;1442;47.448;8.582;2024-01-30T03:17:18;-0.50;99.90
2869;DHT22;1442;47.448;8.582;2024-01-30T03:19:45;-0.50;99.90
2869;DHT22;1442;47.448;8.582;2024-01-30T03:22:12;-0.50;99.90
2869;DHT22;1442;47.448;8.582;2024-01-30T03:24:39;-0.50;99.90
2869;DHT22;1442;47.448;8.582;2024-01-30T03:27:06;-0.60;99.90
2869;DHT22;1442;47.448;8.582;2024-01-30T03:29:32;-0.60;99.90
2869;DHT22;1442;47.448;8.582;2024-01-30T03:32:01;-0.60;99.90
2869;DHT22;1442;47.448;8.582;2024-01-30T03:34:29;-0.60;99.90
2869;DHT22;1442;47.448;8.582;2024-01-30T03:36:56;-0.60;99.90
2869;DHT22;1442;47.448;8.582;2024-01-30T03:39:23;-0.60;99.90
2869;DHT22;1442;47.448;8.582;2024-01-30T03:41:50;-0.60;99.90
2869;DHT22;1442;47.448;8.582;2024-01-30T03:44:17;-0.60;99.90
2869;DHT22;1442;47.448;8.582;2024-01-30T03:46:43;-0.60;99.90
2869;DHT22;1442;47.448;8.582;2024-01-30T03:49:12;-0.60;99.90
2869;DHT22;1442;47.448;8.582;2024-01-30T03:51:39;-0.50;99.90
2869;DHT22;1442;47.448;8.582;2024-01-30T03:54:05;-0.60;99.90
2869;DHT22;1442;47.448;8.582;2024-01-30T03:56:32;-0.60;99.90
2869;DHT22;1442;47.448;8.582;2024-01-30T03:58:59;-0.60;99.90
2869;DHT22;1442;47.448;8.582;2024-01-30T04:01:28;-0.60;99.90
2869;DHT22;1442;47.448;8.582;2024-01-30T04:03:55;-0.60;99.90
2869;DHT22;1442;47.448;8.582;2024-01-30T04:06:23;-0.60;99.90
2869;DHT22;1442;47.448;8.582;2024-01-30T04:08:50;-0.60;99.90
2869;DHT22;1442;47.448;8.582;2024-01-30T04:11:18;-0.70;99.90
2869;DHT22;1442;47.448;8.582;2024-01-30T04:13:45;-0.70;99.90
2869;DHT22;1442;47.448;8.582;2024-01-30T04:16:19;-0.70;99.90
2869;DHT22;1442;47.448;8.582;2024-01-30T04:18:46;-0.70;99.90
2869;DHT22;1442;47.448;8.582;2024-01-30T04:21:13;-0.70;99.90
2869;DHT22;1442;47.448;8.582;2024-01-30T04:23:42;-0.70;99.90
2869;DHT22;1442;47.448;8.582;2024-01-30T04:26:08;-0.70;99.90
2869;DHT22;1442;47.448;8.582;2024-01-30T04:28:35;-0.60;99.90
2869;DHT22;1442;47.448;8.582;2024-01-30T04:31:02;-0.60;99.90
2869;DHT22;1442;47.448;8.582;2024-01-30T04:33:29;-0.60;99.90
2869;DHT22;1442;47.448;8.582;2024-01-30T04:35:56;-0.60;99.90
2869;DHT22;1442;47.448;8.582;2024-01-30T04:38:22;-0.60;99.90
2869;DHT22;1442;47.448;8.582;2024-01-30T04:40:51;-0.60;99.90
2869;DHT22;1442;47.448;8.582;2024-01-30T04:43:17;-0.50;99.90
2869;DHT22;1442;47.448;8.582;2024-01-30T04:45:45;-0.50;99.90
2869;DHT22;1442;47.448;8.582;2024-01-30T04:48:12;-0.50;99.90
2869;DHT22;1442;47.448;8.582;2024-01-30T04:50:39;-0.50;99.90
2869;DHT22;1442;47.448;8.582;2024-01-30T04:53:06;-0.50;99.90
2869;DHT22;1442;47.448;8.582;2024-01-30T04:55:34;-0.40;99.90
2869;DHT22;1442;47.448;8.582;2024-01-30T04:58:03;-0.30;99.90
2869;DHT22;1442;47.448;8.582;2024-01-30T05:00:30;-0.30;99.90
2869;DHT22;1442;47.448;8.582;2024-01-30T05:02:57;-0.30;99.90
2869;DHT22;1442;47.448;8.582;2024-01-30T05:05:24;-0.30;99.90
2869;DHT22;1442;47.448;8.582;2024-01-30T05:07:50;-0.30;99.90
2869;DHT22;1442;47.448;8.582;2024-01-30T05:10:17;-0.20;99.90
2869;DHT22;1442;47.448;8.582;2024-01-30T05:12:44;-0.30;99.90
2869;DHT22;1442;47.448;8.582;2024-01-30T05:15:12;-0.30;99.90
2869;DHT22;1442;47.448;8.582;2024-01-30T05:17:39;-0.30;99.90
2869;DHT22;1442;47.448;8.582;2024-01-30T05:20:07;-0.30;99.90
2869;DHT22;1442;47.448;8.582;2024-01-30T05:22:34;-0.30;99.90
2869;DHT22;1442;47.448;8.582;2024-01-30T05:25:01;-0.40;99.90
2869;DHT22;1442;47.448;8.582;2024-01-30T05:27:29;-0.30;99.90
2869;DHT22;1442;47.448;8.582;2024-01-30T05:29:56;-0.20;99.90
2869;DHT22;1442;47.448;8.582;2024-01-30T05:32:24;-0.30;99.90
2869;DHT22;1442;47.448;8.582;2024-01-30T05:34:51;-0.20;99.90
2869;DHT22;1442;47.448;8.582;2024-01-30T05:37:17;-0.20;99.90
2869;DHT22;1442;47.448;8.582;2024-01-30T05:39:44;-0.20;99.90
2869;DHT22;1442;47.448;8.582;2024-01-30T05:42:11;-0.20;99.90
2869;DHT22;1442;47.448;8.582;2024-01-30T05:44:38;-0.20;99.90
2869;DHT22;1442;47.448;8.582;2024-01-30T05:47:05;-0.20;99.90
2869;DHT22;1442;47.448;8.582;2024-01-30T05:49:33;-0.30;99.90
2869;DHT22;1442;47.448;8.582;2024-01-30T05:52:01;-0.20;99.90
2869;DHT22;1442;47.448;8.582;2024-01-30T05:54:28;-0.20;99.90
2869;DHT22;1442;47.448;8.582;2024-01-30T05:56:55;-0.20;99.90
2869;DHT22;1442;47.448;8.582;2024-01-30T05:59:22;-0.20;99.90
2869;DHT22;1442;47.448;8.582;2024-01-30T06:01:49;-0.20;99.90
2869;DHT22;1442;47.448;8.582;2024-01-30T06:04:16;-0.20;99.90
2869;DHT22;1442;47.448;8.582;2024-01-30T06:06:44;-0.20;99.90
2869;DHT22;1442;47.448;8.582;2024-01-30T06:09:11;-0.10;99.90
2869;DHT22;1442;47.448;8.582;2024-01-30T06:11:38;0.00;99.90
2869;DHT22;1442;47.448;8.582;2024-01-30T06:14:05;0.10;99.90
2869;DHT22;1442;47.448;8.582;2024-01-30T06:16:32;0.20;99.90
2869;DHT22;1442;47.448;8.582;2024-01-30T06:18:59;0.20;99.90
2869;DHT22;1442;47.448;8.582;2024-01-30T06:21:26;0.20;99.90
2869;DHT22;1442;47.448;8.582;2024-01-30T06:23:54;0.20;99.90
2869;DHT22;1442;47.448;8.582;2024-01-30T06:26:21;0.20;99.90
2869;DHT22;1442;47.448;8.582;2024-01-30T06:28:47;0.20;99.90
2869;DHT22;1442;47.448;8.582;2024-01-30T06:31:14;0.20;99.90
2869;DHT22;1442;47.448;8.582;2024-01-30T06:33:41;0.30;99.90
2869;DHT22;1442;47.448;8.582;2024-01-30T06:36:08;0.30;99.90
2869;DHT22;1442;47.448;8.582;2024-01-30T06:38:35;0.30;99.90
2869;DHT22;1442;47.448;8.582;2024-01-30T06:41:03;0.30;99.90
2869;DHT22;1442;47.448;8.582;2024-01-30T06:43:30;0.30;99.90
2869;DHT22;1442;47.448;8.582;2024-01-30T06:45:57;0.40;99.90
2869;DHT22;1442;47.448;8.582;2024-01-30T06:48:25;0.40;99.90
2869;DHT22;1442;47.448;8.582;2024-01-30T06:50:53;0.40;99.90
2869;DHT22;1442;47.448;8.582;2024-01-30T06:53:20;0.50;99.90
2869;DHT22;1442;47.448;8.582;2024-01-30T06:55:47;0.50;99.90
2869;DHT22;1442;47.448;8.582;2024-01-30T06:58:15;0.50;99.90
2869;DHT22;1442;47.448;8.582;2024-01-30T07:00:42;0.50;99.90
2869;DHT22;1442;47.448;8.582;2024-01-30T07:03:09;0.60;99.90
2869;DHT22;1442;47.448;8.582;2024-01-30T07:05:36;0.60;99.90
2869;DHT22;1442;47.448;8.582;2024-01-30T07:08:03;0.60;99.90
2869;DHT22;1442;47.448;8.582;2024-01-30T07:10:30;0.70;99.90
2869;DHT22;1442;47.448;8.582;2024-01-30T07:12:57;0.70;99.90
2869;DHT22;1442;47.448;8.582;2024-01-30T07:15:25;0.70;99.90
2869;DHT22;1442;47.448;8.582;2024-01-30T07:17:52;0.70;99.90
2869;DHT22;1442;47.448;8.582;2024-01-30T07:20:19;0.70;99.90
2869;DHT22;1442;47.448;8.582;2024-01-30T07:22:46;0.70;99.90
2869;DHT22;1442;47.448;8.582;2024-01-30T07:25:13;0.70;99.90
2869;DHT22;1442;47.448;8.582;2024-01-30T07:27:40;0.70;99.90
2869;DHT22;1442;47.448;8.582;2024-01-30T07:30:08;0.70;99.90
2869;DHT22;1442;47.448;8.582;2024-01-30T07:32:36;0.70;99.90
2869;DHT22;1442;47.448;8.582;2024-01-30T07:35:03;0.70;99.90
2869;DHT22;1442;47.448;8.582;2024-01-30T07:37:30;0.70;99.90
2869;DHT22;1442;47.448;8.582;2024-01-30T07:39:57;0.80;99.90
2869;DHT22;1442;47.448;8.582;2024-01-30T07:42:24;0.80;99.90
2869;DHT22;1442;47.448;8.582;2024-01-30T07:44:51;0.90;99.90
2869;DHT22;1442;47.448;8.582;2024-01-30T07:47:18;1.00;99.90
2869;DHT22;1442;47.448;8.582;2024-01-30T07:49:46;1.00;99.90
2869;DHT22;1442;47.448;8.582;2024-01-30T07:52:13;1.10;99.90
2869;DHT22;1442;47.448;8.582;2024-01-30T07:54:49;1.20;99.90
2869;DHT22;1442;47.448;8.582;2024-01-30T07:57:16;1.20;99.90
2869;DHT22;1442;47.448;8.582;2024-01-30T07:59:43;1.30;99.90
2869;DHT22;1442;47.448;8.582;2024-01-30T08:02:11;1.30;99.90
2869;DHT22;1442;47.448;8.582;2024-01-30T08:04:38;1.30;99.90
2869;DHT22;1442;47.448;8.582;2024-01-30T08:07:07;1.30;99.90
2869;DHT22;1442;47.448;8.582;2024-01-30T08:09:33;1.30;99.90
2869;DHT22;1442;47.448;8.582;2024-01-30T08:12:00;1.30;99.90
2869;DHT22;1442;47.448;8.582;2024-01-30T08:14:27;1.30;99.90
2869;DHT22;1442;47.448;8.582;2024-01-30T08:16:54;1.30;99.90
2869;DHT22;1442;47.448;8.582;2024-01-30T08:19:21;1.30;99.90
2869;DHT22;1442;47.448;8.582;2024-01-30T08:21:47;1.30;99.90
2869;DHT22;1442;47.448;8.582;2024-01-30T08:24:15;1.30;99.90
2869;DHT22;1442;47.448;8.582;2024-01-30T08:26:42;1.30;99.90
2869;DHT22;1442;47.448;8.582;2024-01-30T08:29:09;1.40;99.90
2869;DHT22;1442;47.448;8.582;2024-01-30T08:31:36;1.40;99.90
2869;DHT22;1442;47.448;8.582;2024-01-30T08:34:03;1.40;99.90
2869;DHT22;1442;47.448;8.582;2024-01-30T08:36:30;1.40;99.90
2869;DHT22;1442;47.448;8.582;2024-01-30T08:38:56;1.40;99.90
2869;DHT22;1442;47.448;8.582;2024-01-30T08:41:25;1.40;99.90
2869;DHT22;1442;47.448;8.582;2024-01-30T08:43:52;1.40;99.90
2869;DHT22;1442;47.448;8.582;2024-01-30T08:46:20;1.60;99.90
2869;DHT22;1442;47.448;8.582;2024-01-30T08:48:47;1.60;99.90
2869;DHT22;1442;47.448;8.582;2024-01-30T08:51:14;1.70;99.90
2869;DHT22;1442;47.448;8.582;2024-01-30T08:53:41;1.80;99.90
2869;DHT22;1442;47.448;8.582;2024-01-30T08:56:08;1.90;99.90
2869;DHT22;1442;47.448;8.582;2024-01-30T08:58:36;1.90;99.90
2869;DHT22;1442;47.448;8.582;2024-01-30T09:01:03;2.00;99.90
2869;DHT22;1442;47.448;8.582;2024-01-30T09:03:31;2.10;99.90
2869;DHT22;1442;47.448;8.582;2024-01-30T09:05:58;2.10;99.90
2869;DHT22;1442;47.448;8.582;2024-01-30T09:08:25;2.20;99.90
2869;DHT22;1442;47.448;8.582;2024-01-30T09:10:51;2.40;99.90
2869;DHT22;1442;47.448;8.582;2024-01-30T09:13:18;2.50;99.90
2869;DHT22;1442;47.448;8.582;2024-01-30T09:15:46;2.60;99.90
2869;DHT22;1442;47.448;8.582;2024-01-30T09:18:13;2.70;99.90
2869;DHT22;1442;47.448;8.582;2024-01-30T09:20:40;2.90;99.90
2869;DHT22;1442;47.448;8.582;2024-01-30T09:23:07;3.00;99.90
2869;DHT22;1442;47.448;8.582;2024-01-30T09:25:34;3.10;99.90
2869;DHT22;1442;47.448;8.582;2024-01-30T09:28:01;3.20;99.90
2869;DHT22;1442;47.448;8.582;2024-01-30T09:30:27;3.30;99.90
2869;DHT22;1442;47.448;8.582;2024-01-30T09:32:56;3.40;99.90
2869;DHT22;1442;47.448;8.582;2024-01-30T09:35:22;3.60;99.90
2869;DHT22;1442;47.448;8.582;2024-01-30T09:37:49;3.70;99.90
2869;DHT22;1442;47.448;8.582;2024-01-30T09:40:17;3.80;99.90
2869;DHT22;1442;47.448;8.582;2024-01-30T09:42:46;4.00;99.90
2869;DHT22;1442;47.448;8.582;2024-01-30T09:45:14;4.10;99.90
2869;DHT22;1442;47.448;8.582;2024-01-30T09:47:42;4.20;99.90
2869;DHT22;1442;47.448;8.582;2024-01-30T09:50:11;4.30;99.90
2869;DHT22;1442;47.448;8.582;2024-01-30T09:52:39;4.40;99.90
2869;DHT22;1442;47.448;8.582;2024-01-30T09:55:07;4.50;99.90
2869;DHT22;1442;47.448;8.582;2024-01-30T09:57:34;4.60;99.90
2869;DHT22;1442;47.448;8.582;2024-01-30T10:00:01;4.80;99.90
2869;DHT22;1442;47.448;8.582;2024-01-30T10:02:28;4.90;99.90
2869;DHT22;1442;47.448;8.582;2024-01-30T10:04:55;5.00;99.90
2869;DHT22;1442;47.448;8.582;2024-01-30T10:07:23;5.20;99.90
2869;DHT22;1442;47.448;8.582;2024-01-30T10:09:50;5.30;99.90
2869;DHT22;1442;47.448;8.582;2024-01-30T10:12:17;5.40;99.90
2869;DHT22;1442;47.448;8.582;2024-01-30T10:14:44;5.50;99.90
2869;DHT22;1442;47.448;8.582;2024-01-30T10:17:12;5.60;99.90
2869;DHT22;1442;47.448;8.582;2024-01-30T10:19:40;5.70;99.90
2869;DHT22;1442;47.448;8.582;2024-01-30T10:22:07;5.70;99.90
2869;DHT22;1442;47.448;8.582;2024-01-30T10:24:36;5.80;99.90
2869;DHT22;1442;47.448;8.582;2024-01-30T10:27:05;5.90;99.90
2869;DHT22;1442;47.448;8.582;2024-01-30T10:29:32;6.10;99.90
2869;DHT22;1442;47.448;8.582;2024-01-30T10:31:59;6.20;99.90
2869;DHT22;1442;47.448;8.582;2024-01-30T10:34:26;6.30;99.90
2869;DHT22;1442;47.448;8.582;2024-01-30T10:36:59;6.40;99.90
2869;DHT22;1442;47.448;8.582;2024-01-30T10:39:29;6.50;99.90
2869;DHT22;1442;47.448;8.582;2024-01-30T10:42:01;6.60;99.90
2869;DHT22;1442;47.448;8.582;2024-01-30T10:44:42;6.80;99.90
2869;DHT22;1442;47.448;8.582;2024-01-30T10:47:12;6.80;99.90
2869;DHT22;1442;47.448;8.582;2024-01-30T10:49:41;7.00;99.90
2869;DHT22;1442;47.448;8.582;2024-01-30T10:52:09;7.20;99.90
2869;DHT22;1442;47.448;8.582;2024-01-30T10:54:37;7.30;99.90
2869;DHT22;1442;47.448;8.582;2024-01-30T10:57:08;7.40;99.90
2869;DHT22;1442;47.448;8.582;2024-01-30T10:59:36;7.50;99.90
2869;DHT22;1442;47.448;8.582;2024-01-30T11:02:03;7.60;99.90
2869;DHT22;1442;47.448;8.582;2024-01-30T11:04:36;7.70;99.90
2869;DHT22;1442;47.448;8.582;2024-01-30T11:07:13;7.80;99.90
2869;DHT22;1442;47.448;8.582;2024-01-30T11:09:40;7.90;99.90
2869;DHT22;1442;47.448;8.582;2024-01-30T11:12:13;8.00;99.90
2869;DHT22;1442;47.448;8.582;2024-01-30T11:14:40;8.00;99.90
2869;DHT22;1442;47.448;8.582;2024-01-30T11:17:09;8.10;99.90
2869;DHT22;1442;47.448;8.582;2024-01-30T11:19:38;8.10;99.90
2869;DHT22;1442;47.448;8.582;2024-01-30T11:22:06;8.20;99.90
2869;DHT22;1442;47.448;8.582;2024-01-30T11:24:39;8.30;99.90
2869;DHT22;1442;47.448;8.582;2024-01-30T11:27:08;8.30;99.90
2869;DHT22;1442;47.448;8.582;2024-01-30T11:29:37;8.40;99.90
2869;DHT22;1442;47.448;8.582;2024-01-30T11:32:04;8.40;99.90
2869;DHT22;1442;47.448;8.582;2024-01-30T11:34:32;8.50;99.90
2869;DHT22;1442;47.448;8.582;2024-01-30T11:37:04;8.60;99.90
2869;DHT22;1442;47.448;8.582;2024-01-30T11:39:36;8.70;99.90
2869;DHT22;1442;47.448;8.582;2024-01-30T11:42:06;8.70;99.90
2869;DHT22;1442;47.448;8.582;2024-01-30T11:44:34;8.70;99.90
2869;DHT22;1442;47.448;8.582;2024-01-30T11:47:03;8.80;99.90
2869;DHT22;1442;47.448;8.582;2024-01-30T11:49:29;8.80;99.90
2869;DHT22;1442;47.448;8.582;2024-01-30T11:51:56;8.90;99.90
2869;DHT22;1442;47.448;8.582;2024-01-30T11:54:23;8.90;99.90
2869;DHT22;1442;47.448;8.582;2024-01-30T11:56:50;8.90;99.90
2869;DHT22;1442;47.448;8.582;2024-01-30T11:59:17;9.00;99.90
2869;DHT22;1442;47.448;8.582;2024-01-30T12:01:44;9.10;99.90
2869;DHT22;1442;47.448;8.582;2024-01-30T12:04:12;9.20;99.90
2869;DHT22;1442;47.448;8.582;2024-01-30T12:06:39;9.20;99.90
2869;DHT22;1442;47.448;8.582;2024-01-30T12:09:06;9.40;99.90
2869;DHT22;1442;47.448;8.582;2024-01-30T12:11:43;9.50;99.90
2869;DHT22;1442;47.448;8.582;2024-01-30T12:14:11;9.60;99.90
2869;DHT22;1442;47.448;8.582;2024-01-30T12:16:38;9.60;99.90
2869;DHT22;1442;47.448;8.582;2024-01-30T12:19:05;9.80;99.90
2869;DHT22;1442;47.448;8.582;2024-01-30T12:21:34;9.80;99.90
2869;DHT22;1442;47.448;8.582;2024-01-30T12:24:01;9.80;99.90
2869;DHT22;1442;47.448;8.582;2024-01-30T12:26:28;9.90;99.90
2869;DHT22;1442;47.448;8.582;2024-01-30T12:28:56;10.00;99.90
2869;DHT22;1442;47.448;8.582;2024-01-30T12:31:26;10.10;99.90
2869;DHT22;1442;47.448;8.582;2024-01-30T12:33:53;10.10;99.90
2869;DHT22;1442;47.448;8.582;2024-01-30T12:36:21;10.20;99.90
2869;DHT22;1442;47.448;8.582;2024-01-30T12:38:49;10.20;99.90
2869;DHT22;1442;47.448;8.582;2024-01-30T12:41:16;10.20;99.90
2869;DHT22;1442;47.448;8.582;2024-01-30T12:43:43;10.20;99.90
2869;DHT22;1442;47.448;8.582;2024-01-30T12:46:10;10.20;99.90
2869;DHT22;1442;47.448;8.582;2024-01-30T12:48:37;10.30;99.90
2869;DHT22;1442;47.448;8.582;2024-01-30T12:51:04;10.30;99.90
2869;DHT22;1442;47.448;8.582;2024-01-30T12:53:31;10.40;99.90
2869;DHT22;1442;47.448;8.582;2024-01-30T12:55:59;10.50;99.90
2869;DHT22;1442;47.448;8.582;2024-01-30T12:58:26;10.60;99.90
2869;DHT22;1442;47.448;8.582;2024-01-30T13:00:53;10.70;99.90
2869;DHT22;1442;47.448;8.582;2024-01-30T13:03:20;10.80;99.90
2869;DHT22;1442;47.448;8.582;2024-01-30T13:05:47;10.80;99.90
2869;DHT22;1442;47.448;8.582;2024-01-30T13:08:14;10.90;99.90
2869;DHT22;1442;47.448;8.582;2024-01-30T13:10:41;11.00;99.90
2869;DHT22;1442;47.448;8.582;2024-01-30T13:13:09;11.00;99.90
2869;DHT22;1442;47.448;8.582;2024-01-30T13:15:36;11.10;99.90
2869;DHT22;1442;47.448;8.582;2024-01-30T13:18:03;11.10;99.90
2869;DHT22;1442;47.448;8.582;2024-01-30T13:20:30;11.10;99.90
2869;DHT22;1442;47.448;8.582;2024-01-30T13:22:57;11.10;99.90
2869;DHT22;1442;47.448;8.582;2024-01-30T13:25:24;11.00;99.90
2869;DHT22;1442;47.448;8.582;2024-01-30T13:27:51;11.00;99.90
2869;DHT22;1442;47.448;8.582;2024-01-30T13:30:19;11.00;99.90
2869;DHT22;1442;47.448;8.582;2024-01-30T13:32:46;11.10;99.90
2869;DHT22;1442;47.448;8.582;2024-01-30T13:35:13;11.10;99.90
2869;DHT22;1442;47.448;8.582;2024-01-30T13:37:40;11.10;99.90
2869;DHT22;1442;47.448;8.582;2024-01-30T13:40:08;11.20;99.90
2869;DHT22;1442;47.448;8.582;2024-01-30T13:42:35;11.20;99.90
2869;DHT22;1442;47.448;8.582;2024-01-30T13:45:02;11.20;99.90
2869;DHT22;1442;47.448;8.582;2024-01-30T13:47:31;11.20;99.90
2869;DHT22;1442;47.448;8.582;2024-01-30T13:49:58;11.10;99.90
2869;DHT22;1442;47.448;8.582;2024-01-30T13:52:24;11.10;99.90
2869;DHT22;1442;47.448;8.582;2024-01-30T13:54:52;11.20;99.90
2869;DHT22;1442;47.448;8.582;2024-01-30T13:57:19;11.10;99.90
2869;DHT22;1442;47.448;8.582;2024-01-30T13:59:46;11.10;99.90
2869;DHT22;1442;47.448;8.582;2024-01-30T14:02:13;11.10;99.90
2869;DHT22;1442;47.448;8.582;2024-01-30T14:04:41;11.10;99.90
2869;DHT22;1442;47.448;8.582;2024-01-30T14:07:09;11.10;99.90
2869;DHT22;1442;47.448;8.582;2024-01-30T14:09:36;11.10;99.90
2869;DHT22;1442;47.448;8.582;2024-01-30T14:12:03;11.10;99.90
2869;DHT22;1442;47.448;8.582;2024-01-30T14:14:30;11.10;99.90
2869;DHT22;1442;47.448;8.582;2024-01-30T14:16:56;11.10;99.90
2869;DHT22;1442;47.448;8.582;2024-01-30T14:19:23;11.20;99.90
2869;DHT22;1442;47.448;8.582;2024-01-30T14:21:51;11.20;99.90
2869;DHT22;1442;47.448;8.582;2024-01-30T14:24:18;11.20;99.90
2869;DHT22;1442;47.448;8.582;2024-01-30T14:26:45;11.30;99.90
2869;DHT22;1442;47.448;8.582;2024-01-30T14:29:12;11.30;99.90
2869;DHT22;1442;47.448;8.582;2024-01-30T14:31:39;11.30;99.90
2869;DHT22;1442;47.448;8.582;2024-01-30T14:34:05;11.30;99.90
2869;DHT22;1442;47.448;8.582;2024-01-30T14:36:33;11.30;99.90
2869;DHT22;1442;47.448;8.582;2024-01-30T14:39:02;11.20;99.90
2869;DHT22;1442;47.448;8.582;2024-01-30T14:41:29;11.20;99.90
2869;DHT22;1442;47.448;8.582;2024-01-30T14:43:55;11.20;99.90
2869;DHT22;1442;47.448;8.582;2024-01-30T14:46:22;11.20;99.90
2869;DHT22;1442;47.448;8.582;2024-01-30T14:48:49;11.20;99.90
2869;DHT22;1442;47.448;8.582;2024-01-30T14:51:17;11.20;99.90
2869;DHT22;1442;47.448;8.582;2024-01-30T14:53:44;11.20;99.90
2869;DHT22;1442;47.448;8.582;2024-01-30T14:56:12;11.20;99.90
2869;DHT22;1442;47.448;8.582;2024-01-30T14:58:38;11.20;99.90
2869;DHT22;1442;47.448;8.582;2024-01-30T15:01:07;11.10;99.90
2869;DHT22;1442;47.448;8.582;2024-01-30T15:03:33;11.10;99.90
2869;DHT22;1442;47.448;8.582;2024-01-30T15:06:01;11.10;99.90
2869;DHT22;1442;47.448;8.582;2024-01-30T15:08:30;11.10;99.90
2869;DHT22;1442;47.448;8.582;2024-01-30T15:10:58;11.10;99.90
2869;DHT22;1442;47.448;8.582;2024-01-30T15:13:26;11.10;99.90
2869;DHT22;1442;47.448;8.582;2024-01-30T15:15:53;11.10;99.90
2869;DHT22;1442;47.448;8.582;2024-01-30T15:18:20;11.20;99.90
2869;DHT22;1442;47.448;8.582;2024-01-30T15:20:46;11.10;99.90
2869;DHT22;1442;47.448;8.582;2024-01-30T15:23:13;11.10;99.90
2869;DHT22;1442;47.448;8.582;2024-01-30T15:25:41;11.20;99.90
2869;DHT22;1442;47.448;8.582;2024-01-30T15:28:08;11.20;99.90
2869;DHT22;1442;47.448;8.582;2024-01-30T15:30:37;11.20;99.90
2869;DHT22;1442;47.448;8.582;2024-01-30T15:33:04;11.20;99.90
2869;DHT22;1442;47.448;8.582;2024-01-30T15:35:31;11.20;99.90
2869;DHT22;1442;47.448;8.582;2024-01-30T15:37:58;11.20;99.90
2869;DHT22;1442;47.448;8.582;2024-01-30T15:40:25;11.20;99.90
2869;DHT22;1442;47.448;8.582;2024-01-30T15:42:51;11.20;99.90
2869;DHT22;1442;47.448;8.582;2024-01-30T15:45:18;11.20;99.90
2869;DHT22;1442;47.448;8.582;2024-01-30T15:47:47;11.10;99.90
2869;DHT22;1442;47.448;8.582;2024-01-30T15:50:13;11.00;99.90
2869;DHT22;1442;47.448;8.582;2024-01-30T15:52:40;11.00;99.90
2869;DHT22;1442;47.448;8.582;2024-01-30T15:55:07;10.90;99.90
2869;DHT22;1442;47.448;8.582;2024-01-30T15:57:34;10.80;99.90
2869;DHT22;1442;47.448;8.582;2024-01-30T16:00:00;10.80;99.90
2869;DHT22;1442;47.448;8.582;2024-01-30T16:02:29;10.70;99.90
2869;DHT22;1442;47.448;8.582;2024-01-30T16:04:57;10.70;99.90
2869;DHT22;1442;47.448;8.582;2024-01-30T16:07:24;10.70;99.90
2869;DHT22;1442;47.448;8.582;2024-01-30T16:09:51;10.70;99.90